EDDS/STR METAR and TAF weather

Enter ICAO airport designator
Station Type Date Time Source
EDDS METAR 2020/02/29 03:20 UTC NOAA

EDDS 290320Z VRB02KT 9999 -RA FEW045 06/03 Q1007


Station Type Date Time Source
EDDS Decoded METAR 2020/02/29 03:20 UTC NOAA

Stuttgart-Echterdingen, Germany (EDDS) 48-41N 009-13E 391M
Feb 28, 2020 - 10:20 PM EST / 2020.02.29 0320 UTC
Wind: Variable at 2 MPH (2 KT):0
Visibility: greater than 7 mile(s):0
Sky conditions: mostly clear
Weather: light rain
Temperature: 42 F (6 C)
Dew Point: 37 F (3 C)
Relative Humidity: 81%
Pressure (altimeter): 29.74 in. Hg (1007 hPa)
ob: EDDS 290320Z VRB02KT 9999 -RA FEW045 06/03 Q1007
cycle: 3

Station Type Date Time Source
EDDS TAF 2020/02/28 18:27 UTC NOAA

TAF EDDS 281700Z 2818/2918 16005KT 9999 SCT040
BECMG 2908/2910 18010KT
BECMG 2912/2914 21015G25KT
TEMPO 2916/2918 22020G30KT SHRA BKN020CB

Example: see airport list